sensor_id;sensor_type;location;lat;lon;timestamp;P1;durP1;ratioP1;P2;durP2;ratioP2
19804;SDS011;10062;51.052;13.756;2023-04-24T00:01:08;7.47;;;3.80;;
19804;SDS011;10062;51.052;13.756;2023-04-24T00:03:40;7.53;;;4.03;;
19804;SDS011;10062;51.052;13.756;2023-04-24T00:06:13;7.63;;;4.07;;
19804;SDS011;10062;51.052;13.756;2023-04-24T00:08:46;7.90;;;4.57;;
19804;SDS011;10062;51.052;13.756;2023-04-24T00:11:18;7.53;;;4.40;;
19804;SDS011;10062;51.052;13.756;2023-04-24T00:13:50;8.67;;;4.07;;
19804;SDS011;10062;51.052;13.756;2023-04-24T00:16:21;7.40;;;4.03;;
19804;SDS011;10062;51.052;13.756;2023-04-24T00:18:54;6.13;;;3.60;;
19804;SDS011;10062;51.052;13.756;2023-04-24T00:21:27;7.83;;;4.00;;
19804;SDS011;10062;51.052;13.756;2023-04-24T00:23:58;7.17;;;3.53;;
19804;SDS011;10062;51.052;13.756;2023-04-24T00:26:30;6.63;;;4.03;;
19804;SDS011;10062;51.052;13.756;2023-04-24T00:29:01;5.27;;;3.57;;
19804;SDS011;10062;51.052;13.756;2023-04-24T00:31:33;6.73;;;3.57;;
19804;SDS011;10062;51.052;13.756;2023-04-24T00:34:05;7.27;;;4.57;;
19804;SDS011;10062;51.052;13.756;2023-04-24T00:36:39;7.17;;;3.90;;
19804;SDS011;10062;51.052;13.756;2023-04-24T00:39:10;4.97;;;3.30;;
19804;SDS011;10062;51.052;13.756;2023-04-24T00:41:42;6.80;;;4.00;;
19804;SDS011;10062;51.052;13.756;2023-04-24T00:44:15;8.47;;;3.83;;
19804;SDS011;10062;51.052;13.756;2023-04-24T00:46:47;5.87;;;3.30;;
19804;SDS011;10062;51.052;13.756;2023-04-24T00:49:22;5.57;;;3.80;;
19804;SDS011;10062;51.052;13.756;2023-04-24T00:51:56;7.10;;;4.43;;
19804;SDS011;10062;51.052;13.756;2023-04-24T00:54:29;8.00;;;4.40;;
19804;SDS011;10062;51.052;13.756;2023-04-24T00:57:00;5.87;;;3.97;;
19804;SDS011;10062;51.052;13.756;2023-04-24T00:59:33;6.60;;;3.87;;
19804;SDS011;10062;51.052;13.756;2023-04-24T01:02:05;6.57;;;4.20;;
19804;SDS011;10062;51.052;13.756;2023-04-24T01:04:38;5.63;;;3.57;;
19804;SDS011;10062;51.052;13.756;2023-04-24T01:07:12;5.90;;;3.73;;
19804;SDS011;10062;51.052;13.756;2023-04-24T01:09:43;8.27;;;4.13;;
19804;SDS011;10062;51.052;13.756;2023-04-24T01:12:17;6.43;;;4.20;;
19804;SDS011;10062;51.052;13.756;2023-04-24T01:14:49;5.90;;;3.53;;
19804;SDS011;10062;51.052;13.756;2023-04-24T01:17:20;10.60;;;4.40;;
19804;SDS011;10062;51.052;13.756;2023-04-24T01:19:52;8.57;;;3.53;;
19804;SDS011;10062;51.052;13.756;2023-04-24T01:22:29;5.83;;;3.70;;
19804;SDS011;10062;51.052;13.756;2023-04-24T01:25:00;6.53;;;4.53;;
19804;SDS011;10062;51.052;13.756;2023-04-24T01:27:34;8.30;;;4.43;;
19804;SDS011;10062;51.052;13.756;2023-04-24T01:30:06;7.27;;;4.30;;
19804;SDS011;10062;51.052;13.756;2023-04-24T01:32:38;7.83;;;4.43;;
19804;SDS011;10062;51.052;13.756;2023-04-24T01:35:11;6.00;;;4.17;;
19804;SDS011;10062;51.052;13.756;2023-04-24T01:37:44;6.17;;;3.80;;
19804;SDS011;10062;51.052;13.756;2023-04-24T01:40:16;12.00;;;4.20;;
19804;SDS011;10062;51.052;13.756;2023-04-24T01:42:47;8.23;;;4.10;;
19804;SDS011;10062;51.052;13.756;2023-04-24T01:45:19;8.17;;;4.37;;
19804;SDS011;10062;51.052;13.756;2023-04-24T01:47:51;7.37;;;4.27;;
19804;SDS011;10062;51.052;13.756;2023-04-24T01:50:23;8.40;;;4.30;;
19804;SDS011;10062;51.052;13.756;2023-04-24T01:52:56;7.37;;;4.37;;
19804;SDS011;10062;51.052;13.756;2023-04-24T01:55:28;7.20;;;3.70;;
19804;SDS011;10062;51.052;13.756;2023-04-24T01:57:59;8.43;;;4.87;;
19804;SDS011;10062;51.052;13.756;2023-04-24T02:00:32;8.93;;;4.73;;
19804;SDS011;10062;51.052;13.756;2023-04-24T02:03:04;8.47;;;5.47;;
19804;SDS011;10062;51.052;13.756;2023-04-24T02:05:35;7.20;;;4.20;;
19804;SDS011;10062;51.052;13.756;2023-04-24T02:08:08;8.60;;;4.00;;
19804;SDS011;10062;51.052;13.756;2023-04-24T02:10:41;8.60;;;4.80;;
19804;SDS011;10062;51.052;13.756;2023-04-24T02:13:13;8.93;;;5.13;;
19804;SDS011;10062;51.052;13.756;2023-04-24T02:15:44;8.43;;;5.07;;
19804;SDS011;10062;51.052;13.756;2023-04-24T02:18:16;8.10;;;4.63;;
19804;SDS011;10062;51.052;13.756;2023-04-24T02:20:48;6.67;;;4.13;;
19804;SDS011;10062;51.052;13.756;2023-04-24T02:23:21;7.90;;;4.73;;
19804;SDS011;10062;51.052;13.756;2023-04-24T02:25:53;8.57;;;4.33;;
19804;SDS011;10062;51.052;13.756;2023-04-24T02:28:24;8.67;;;4.50;;
19804;SDS011;10062;51.052;13.756;2023-04-24T02:30:56;9.40;;;4.70;;
19804;SDS011;10062;51.052;13.756;2023-04-24T02:33:28;9.07;;;5.07;;
19804;SDS011;10062;51.052;13.756;2023-04-24T02:36:00;7.13;;;4.30;;
19804;SDS011;10062;51.052;13.756;2023-04-24T02:38:34;7.53;;;4.83;;
19804;SDS011;10062;51.052;13.756;2023-04-24T02:41:05;7.23;;;5.07;;
19804;SDS011;10062;51.052;13.756;2023-04-24T02:43:37;7.77;;;4.50;;
19804;SDS011;10062;51.052;13.756;2023-04-24T02:46:09;11.37;;;4.67;;
19804;SDS011;10062;51.052;13.756;2023-04-24T02:48:40;8.73;;;4.80;;
19804;SDS011;10062;51.052;13.756;2023-04-24T02:51:12;8.60;;;5.30;;
19804;SDS011;10062;51.052;13.756;2023-04-24T02:53:45;9.27;;;4.60;;
19804;SDS011;10062;51.052;13.756;2023-04-24T02:56:17;8.30;;;5.60;;
19804;SDS011;10062;51.052;13.756;2023-04-24T02:58:48;8.00;;;4.57;;
19804;SDS011;10062;51.052;13.756;2023-04-24T03:01:20;11.60;;;6.03;;
19804;SDS011;10062;51.052;13.756;2023-04-24T03:03:51;9.73;;;4.80;;
19804;SDS011;10062;51.052;13.756;2023-04-24T03:06:23;13.10;;;5.23;;
19804;SDS011;10062;51.052;13.756;2023-04-24T03:08:58;8.13;;;5.10;;
19804;SDS011;10062;51.052;13.756;2023-04-24T03:11:29;8.90;;;5.73;;
19804;SDS011;10062;51.052;13.756;2023-04-24T03:14:01;8.93;;;5.53;;
19804;SDS011;10062;51.052;13.756;2023-04-24T03:16:33;8.27;;;5.10;;
19804;SDS011;10062;51.052;13.756;2023-04-24T03:19:04;7.23;;;5.50;;
19804;SDS011;10062;51.052;13.756;2023-04-24T03:21:40;9.40;;;5.43;;
19804;SDS011;10062;51.052;13.756;2023-04-24T03:24:13;9.00;;;5.20;;
19804;SDS011;10062;51.052;13.756;2023-04-24T03:26:45;8.03;;;5.30;;
19804;SDS011;10062;51.052;13.756;2023-04-24T03:29:49;8.83;;;5.33;;
19804;SDS011;10062;51.052;13.756;2023-04-24T03:32:25;8.33;;;5.20;;
19804;SDS011;10062;51.052;13.756;2023-04-24T03:34:57;7.53;;;5.10;;
19804;SDS011;10062;51.052;13.756;2023-04-24T03:37:29;8.80;;;5.70;;
19804;SDS011;10062;51.052;13.756;2023-04-24T03:40:26;7.40;;;5.30;;
19804;SDS011;10062;51.052;13.756;2023-04-24T03:43:00;9.67;;;5.43;;
19804;SDS011;10062;51.052;13.756;2023-04-24T03:45:32;8.20;;;5.17;;
19804;SDS011;10062;51.052;13.756;2023-04-24T03:48:05;8.90;;;5.30;;
19804;SDS011;10062;51.052;13.756;2023-04-24T03:50:38;9.40;;;5.23;;
19804;SDS011;10062;51.052;13.756;2023-04-24T03:53:13;10.20;;;5.50;;
19804;SDS011;10062;51.052;13.756;2023-04-24T03:55:47;8.07;;;4.30;;
19804;SDS011;10062;51.052;13.756;2023-04-24T03:58:19;12.00;;;5.70;;
19804;SDS011;10062;51.052;13.756;2023-04-24T04:00:50;10.57;;;5.27;;
19804;SDS011;10062;51.052;13.756;2023-04-24T04:03:42;5.90;;;3.70;;
19804;SDS011;10062;51.052;13.756;2023-04-24T04:06:18;6.33;;;3.10;;
19804;SDS011;10062;51.052;13.756;2023-04-24T04:08:53;5.07;;;2.83;;
19804;SDS011;10062;51.052;13.756;2023-04-24T04:11:26;6.33;;;3.80;;
19804;SDS011;10062;51.052;13.756;2023-04-24T04:13:57;6.37;;;3.20;;
19804;SDS011;10062;51.052;13.756;2023-04-24T04:16:30;5.87;;;2.70;;
19804;SDS011;10062;51.052;13.756;2023-04-24T04:19:06;10.10;;;4.33;;
19804;SDS011;10062;51.052;13.756;2023-04-24T04:21:38;6.60;;;3.13;;
19804;SDS011;10062;51.052;13.756;2023-04-24T04:24:17;7.93;;;3.43;;
19804;SDS011;10062;51.052;13.756;2023-04-24T04:26:51;7.40;;;3.13;;
19804;SDS011;10062;51.052;13.756;2023-04-24T04:29:32;4.47;;;2.03;;
19804;SDS011;10062;51.052;13.756;2023-04-24T04:32:05;4.63;;;2.00;;
19804;SDS011;10062;51.052;13.756;2023-04-24T04:34:38;3.67;;;2.03;;
19804;SDS011;10062;51.052;13.756;2023-04-24T04:37:11;13.07;;;8.10;;
19804;SDS011;10062;51.052;13.756;2023-04-24T04:39:55;5.83;;;2.77;;
19804;SDS011;10062;51.052;13.756;2023-04-24T04:42:32;4.37;;;2.13;;
19804;SDS011;10062;51.052;13.756;2023-04-24T04:45:04;2.63;;;1.60;;
19804;SDS011;10062;51.052;13.756;2023-04-24T04:47:50;5.30;;;1.67;;
19804;SDS011;10062;51.052;13.756;2023-04-24T04:50:22;5.40;;;2.00;;
19804;SDS011;10062;51.052;13.756;2023-04-24T04:52:57;5.17;;;2.10;;
19804;SDS011;10062;51.052;13.756;2023-04-24T04:55:35;4.57;;;1.90;;
19804;SDS011;10062;51.052;13.756;2023-04-24T04:58:18;5.87;;;1.67;;
19804;SDS011;10062;51.052;13.756;2023-04-24T05:00:55;3.90;;;1.80;;
19804;SDS011;10062;51.052;13.756;2023-04-24T05:03:38;2.97;;;1.80;;
19804;SDS011;10062;51.052;13.756;2023-04-24T05:06:14;3.87;;;1.87;;
19804;SDS011;10062;51.052;13.756;2023-04-24T05:08:47;5.43;;;1.67;;
19804;SDS011;10062;51.052;13.756;2023-04-24T05:11:30;2.77;;;1.27;;
19804;SDS011;10062;51.052;13.756;2023-04-24T05:14:05;4.30;;;1.40;;
19804;SDS011;10062;51.052;13.756;2023-04-24T05:16:40;2.43;;;1.23;;
19804;SDS011;10062;51.052;13.756;2023-04-24T05:19:13;4.77;;;1.20;;
19804;SDS011;10062;51.052;13.756;2023-04-24T05:21:45;3.50;;;1.20;;
19804;SDS011;10062;51.052;13.756;2023-04-24T05:24:17;7.43;;;1.50;;
19804;SDS011;10062;51.052;13.756;2023-04-24T05:26:59;1.80;;;1.10;;
19804;SDS011;10062;51.052;13.756;2023-04-24T05:29:39;2.77;;;1.43;;
19804;SDS011;10062;51.052;13.756;2023-04-24T05:32:12;2.77;;;1.33;;
19804;SDS011;10062;51.052;13.756;2023-04-24T05:34:43;2.40;;;1.20;;
19804;SDS011;10062;51.052;13.756;2023-04-24T05:37:15;5.87;;;1.23;;
19804;SDS011;10062;51.052;13.756;2023-04-24T05:39:47;5.83;;;1.57;;
19804;SDS011;10062;51.052;13.756;2023-04-24T05:42:19;3.50;;;1.17;;
19804;SDS011;10062;51.052;13.756;2023-04-24T05:44:52;6.63;;;1.70;;
19804;SDS011;10062;51.052;13.756;2023-04-24T05:47:24;5.13;;;1.80;;
19804;SDS011;10062;51.052;13.756;2023-04-24T05:49:57;3.33;;;1.43;;
19804;SDS011;10062;51.052;13.756;2023-04-24T05:52:29;2.30;;;1.20;;
19804;SDS011;10062;51.052;13.756;2023-04-24T05:55:01;3.50;;;1.17;;
19804;SDS011;10062;51.052;13.756;2023-04-24T05:57:37;4.13;;;1.57;;
19804;SDS011;10062;51.052;13.756;2023-04-24T06:00:11;2.33;;;1.60;;
19804;SDS011;10062;51.052;13.756;2023-04-24T06:02:43;3.57;;;1.30;;
19804;SDS011;10062;51.052;13.756;2023-04-24T06:05:17;2.47;;;1.20;;
19804;SDS011;10062;51.052;13.756;2023-04-24T06:07:48;2.13;;;1.27;;
19804;SDS011;10062;51.052;13.756;2023-04-24T06:10:25;11.27;;;4.97;;
19804;SDS011;10062;51.052;13.756;2023-04-24T06:12:57;8.20;;;3.40;;
19804;SDS011;10062;51.052;13.756;2023-04-24T06:15:31;7.67;;;2.83;;
19804;SDS011;10062;51.052;13.756;2023-04-24T06:18:16;3.80;;;1.40;;
19804;SDS011;10062;51.052;13.756;2023-04-24T06:20:48;4.30;;;2.30;;
19804;SDS011;10062;51.052;13.756;2023-04-24T06:23:19;4.93;;;1.53;;
19804;SDS011;10062;51.052;13.756;2023-04-24T06:25:51;8.30;;;3.60;;
19804;SDS011;10062;51.052;13.756;2023-04-24T06:28:23;5.83;;;2.27;;
19804;SDS011;10062;51.052;13.756;2023-04-24T06:30:57;5.60;;;2.30;;
19804;SDS011;10062;51.052;13.756;2023-04-24T06:33:29;8.53;;;1.57;;
19804;SDS011;10062;51.052;13.756;2023-04-24T06:36:02;8.77;;;1.73;;
19804;SDS011;10062;51.052;13.756;2023-04-24T06:38:34;2.93;;;1.27;;
19804;SDS011;10062;51.052;13.756;2023-04-24T06:41:06;3.53;;;1.10;;
19804;SDS011;10062;51.052;13.756;2023-04-24T06:43:37;3.30;;;1.10;;
19804;SDS011;10062;51.052;13.756;2023-04-24T06:46:10;4.40;;;1.10;;
19804;SDS011;10062;51.052;13.756;2023-04-24T06:48:43;2.43;;;0.93;;
19804;SDS011;10062;51.052;13.756;2023-04-24T06:51:14;3.90;;;1.40;;
19804;SDS011;10062;51.052;13.756;2023-04-24T06:53:47;3.50;;;1.10;;
19804;SDS011;10062;51.052;13.756;2023-04-24T06:56:19;3.67;;;1.10;;
19804;SDS011;10062;51.052;13.756;2023-04-24T06:58:51;1.43;;;0.80;;
19804;SDS011;10062;51.052;13.756;2023-04-24T07:01:25;2.13;;;0.97;;
19804;SDS011;10062;51.052;13.756;2023-04-24T07:03:57;3.23;;;0.90;;
19804;SDS011;10062;51.052;13.756;2023-04-24T07:06:29;1.83;;;0.80;;
19804;SDS011;10062;51.052;13.756;2023-04-24T07:09:01;4.50;;;1.00;;
19804;SDS011;10062;51.052;13.756;2023-04-24T07:11:33;1.93;;;0.90;;
19804;SDS011;10062;51.052;13.756;2023-04-24T07:14:06;1.53;;;0.80;;
19804;SDS011;10062;51.052;13.756;2023-04-24T07:16:40;3.20;;;1.03;;
19804;SDS011;10062;51.052;13.756;2023-04-24T07:19:11;2.50;;;1.07;;
19804;SDS011;10062;51.052;13.756;2023-04-24T07:21:43;2.27;;;0.87;;
19804;SDS011;10062;51.052;13.756;2023-04-24T07:24:15;5.10;;;1.20;;
19804;SDS011;10062;51.052;13.756;2023-04-24T07:26:47;5.90;;;1.30;;
19804;SDS011;10062;51.052;13.756;2023-04-24T07:29:18;2.33;;;0.90;;
19804;SDS011;10062;51.052;13.756;2023-04-24T07:31:52;7.17;;;1.00;;
19804;SDS011;10062;51.052;13.756;2023-04-24T07:34:24;3.33;;;1.07;;
19804;SDS011;10062;51.052;13.756;2023-04-24T07:36:56;4.47;;;1.00;;
19804;SDS011;10062;51.052;13.756;2023-04-24T07:39:28;1.47;;;0.80;;
19804;SDS011;10062;51.052;13.756;2023-04-24T07:42:00;1.27;;;0.80;;
19804;SDS011;10062;51.052;13.756;2023-04-24T07:44:32;7.00;;;0.90;;
19804;SDS011;10062;51.052;13.756;2023-04-24T07:47:05;1.87;;;0.80;;
19804;SDS011;10062;51.052;13.756;2023-04-24T07:49:37;2.97;;;0.70;;
19804;SDS011;10062;51.052;13.756;2023-04-24T07:52:08;3.73;;;0.80;;
19804;SDS011;10062;51.052;13.756;2023-04-24T07:54:40;1.63;;;0.90;;
19804;SDS011;10062;51.052;13.756;2023-04-24T07:57:12;3.87;;;1.27;;
19804;SDS011;10062;51.052;13.756;2023-04-24T07:59:44;2.33;;;1.17;;
19804;SDS011;10062;51.052;13.756;2023-04-24T08:02:17;1.77;;;1.20;;
19804;SDS011;10062;51.052;13.756;2023-04-24T08:04:49;2.33;;;1.20;;
19804;SDS011;10062;51.052;13.756;2023-04-24T08:07:20;1.60;;;0.53;;
19804;SDS011;10062;51.052;13.756;2023-04-24T08:09:52;5.40;;;0.80;;
19804;SDS011;10062;51.052;13.756;2023-04-24T08:12:24;1.57;;;0.80;;
19804;SDS011;10062;51.052;13.756;2023-04-24T08:14:56;2.00;;;0.90;;
19804;SDS011;10062;51.052;13.756;2023-04-24T08:17:29;6.90;;;0.97;;
19804;SDS011;10062;51.052;13.756;2023-04-24T08:20:00;5.40;;;0.90;;
19804;SDS011;10062;51.052;13.756;2023-04-24T08:22:33;3.03;;;1.00;;
19804;SDS011;10062;51.052;13.756;2023-04-24T08:25:05;2.43;;;1.30;;
19804;SDS011;10062;51.052;13.756;2023-04-24T08:27:38;4.33;;;0.97;;
19804;SDS011;10062;51.052;13.756;2023-04-24T08:30:10;1.20;;;0.80;;
19804;SDS011;10062;51.052;13.756;2023-04-24T08:32:43;3.37;;;0.93;;
19804;SDS011;10062;51.052;13.756;2023-04-24T08:35:15;3.60;;;1.07;;
19804;SDS011;10062;51.052;13.756;2023-04-24T08:37:47;1.87;;;0.80;;
19804;SDS011;10062;51.052;13.756;2023-04-24T08:40:19;4.13;;;1.00;;
19804;SDS011;10062;51.052;13.756;2023-04-24T08:42:57;2.30;;;0.80;;
19804;SDS011;10062;51.052;13.756;2023-04-24T08:45:30;3.80;;;1.00;;
19804;SDS011;10062;51.052;13.756;2023-04-24T08:48:05;1.67;;;0.70;;
19804;SDS011;10062;51.052;13.756;2023-04-24T08:50:38;3.93;;;1.20;;
19804;SDS011;10062;51.052;13.756;2023-04-24T08:53:12;2.17;;;0.87;;
19804;SDS011;10062;51.052;13.756;2023-04-24T08:55:46;3.90;;;0.80;;
19804;SDS011;10062;51.052;13.756;2023-04-24T08:58:18;12.10;;;1.57;;
19804;SDS011;10062;51.052;13.756;2023-04-24T09:00:50;2.60;;;0.97;;
19804;SDS011;10062;51.052;13.756;2023-04-24T09:03:24;2.87;;;1.00;;
19804;SDS011;10062;51.052;13.756;2023-04-24T09:05:57;1.20;;;0.90;;
19804;SDS011;10062;51.052;13.756;2023-04-24T09:08:31;2.07;;;1.03;;
19804;SDS011;10062;51.052;13.756;2023-04-24T09:11:03;2.10;;;1.37;;
19804;SDS011;10062;51.052;13.756;2023-04-24T09:13:35;3.17;;;0.80;;
19804;SDS011;10062;51.052;13.756;2023-04-24T09:16:07;1.77;;;0.83;;
19804;SDS011;10062;51.052;13.756;2023-04-24T09:18:40;4.43;;;1.07;;
19804;SDS011;10062;51.052;13.756;2023-04-24T09:21:12;4.20;;;0.90;;
19804;SDS011;10062;51.052;13.756;2023-04-24T09:23:43;1.10;;;0.80;;
19804;SDS011;10062;51.052;13.756;2023-04-24T09:26:15;6.43;;;0.90;;
19804;SDS011;10062;51.052;13.756;2023-04-24T09:28:47;1.87;;;0.70;;
19804;SDS011;10062;51.052;13.756;2023-04-24T09:31:19;0.93;;;0.63;;
19804;SDS011;10062;51.052;13.756;2023-04-24T09:33:57;2.37;;;0.80;;
19804;SDS011;10062;51.052;13.756;2023-04-24T09:36:30;3.23;;;0.67;;
19804;SDS011;10062;51.052;13.756;2023-04-24T09:39:04;2.43;;;0.93;;
19804;SDS011;10062;51.052;13.756;2023-04-24T09:41:43;3.30;;;0.90;;
19804;SDS011;10062;51.052;13.756;2023-04-24T09:44:16;2.63;;;0.80;;
19804;SDS011;10062;51.052;13.756;2023-04-24T09:46:51;3.93;;;1.10;;
19804;SDS011;10062;51.052;13.756;2023-04-24T09:49:26;5.60;;;1.10;;
19804;SDS011;10062;51.052;13.756;2023-04-24T09:52:02;4.37;;;1.27;;
19804;SDS011;10062;51.052;13.756;2023-04-24T09:54:34;2.73;;;0.90;;
19804;SDS011;10062;51.052;13.756;2023-04-24T09:57:07;1.83;;;0.70;;
19804;SDS011;10062;51.052;13.756;2023-04-24T09:59:41;2.90;;;0.90;;
19804;SDS011;10062;51.052;13.756;2023-04-24T10:02:17;1.17;;;0.73;;
19804;SDS011;10062;51.052;13.756;2023-04-24T10:04:55;3.03;;;1.23;;
19804;SDS011;10062;51.052;13.756;2023-04-24T10:07:29;3.00;;;0.90;;
19804;SDS011;10062;51.052;13.756;2023-04-24T10:10:04;2.53;;;1.33;;
19804;SDS011;10062;51.052;13.756;2023-04-24T10:12:36;2.30;;;0.90;;
19804;SDS011;10062;51.052;13.756;2023-04-24T10:15:09;1.80;;;0.87;;
19804;SDS011;10062;51.052;13.756;2023-04-24T10:17:43;3.73;;;0.90;;
19804;SDS011;10062;51.052;13.756;2023-04-24T10:20:23;3.30;;;0.87;;
19804;SDS011;10062;51.052;13.756;2023-04-24T10:22:56;2.37;;;0.80;;
19804;SDS011;10062;51.052;13.756;2023-04-24T10:25:29;1.17;;;0.80;;
19804;SDS011;10062;51.052;13.756;2023-04-24T10:28:03;8.50;;;1.33;;
19804;SDS011;10062;51.052;13.756;2023-04-24T10:30:35;3.17;;;0.90;;
19804;SDS011;10062;51.052;13.756;2023-04-24T10:33:07;2.33;;;1.00;;
19804;SDS011;10062;51.052;13.756;2023-04-24T10:35:42;2.90;;;0.90;;
19804;SDS011;10062;51.052;13.756;2023-04-24T10:38:18;3.27;;;0.60;;
19804;SDS011;10062;51.052;13.756;2023-04-24T10:40:57;1.77;;;0.77;;
19804;SDS011;10062;51.052;13.756;2023-04-24T10:43:37;2.50;;;0.77;;
19804;SDS011;10062;51.052;13.756;2023-04-24T10:46:10;1.58;;;1.13;;
19804;SDS011;10062;51.052;13.756;2023-04-24T10:48:52;2.60;;;0.90;;
19804;SDS011;10062;51.052;13.756;2023-04-24T10:51:45;1.83;;;0.80;;
19804;SDS011;10062;51.052;13.756;2023-04-24T10:54:21;4.32;;;1.13;;
19804;SDS011;10062;51.052;13.756;2023-04-24T11:00:15;0.80;;;0.80;;
19804;SDS011;10062;51.052;13.756;2023-04-24T11:02:49;3.90;;;0.73;;
19804;SDS011;10062;51.052;13.756;2023-04-24T11:08:24;2.57;;;1.00;;
19804;SDS011;10062;51.052;13.756;2023-04-24T11:10:58;2.03;;;0.80;;
19804;SDS011;10062;51.052;13.756;2023-04-24T11:16:41;2.17;;;1.03;;
19804;SDS011;10062;51.052;13.756;2023-04-24T11:19:20;1.10;;;0.73;;
19804;SDS011;10062;51.052;13.756;2023-04-24T11:21:57;1.17;;;0.80;;
19804;SDS011;10062;51.052;13.756;2023-04-24T11:24:32;2.43;;;1.43;;
19804;SDS011;10062;51.052;13.756;2023-04-24T11:27:16;2.40;;;0.70;;
19804;SDS011;10062;51.052;13.756;2023-04-24T11:29:58;3.60;;;0.80;;
19804;SDS011;10062;51.052;13.756;2023-04-24T11:32:34;1.37;;;0.70;;
19804;SDS011;10062;51.052;13.756;2023-04-24T11:35:07;1.90;;;0.87;;
19804;SDS011;10062;51.052;13.756;2023-04-24T11:37:47;2.10;;;0.90;;
19804;SDS011;10062;51.052;13.756;2023-04-24T11:40:22;2.00;;;1.03;;
19804;SDS011;10062;51.052;13.756;2023-04-24T11:42:55;2.00;;;0.77;;
19804;SDS011;10062;51.052;13.756;2023-04-24T11:45:29;1.67;;;0.70;;
19804;SDS011;10062;51.052;13.756;2023-04-24T11:48:02;1.33;;;0.80;;
19804;SDS011;10062;51.052;13.756;2023-04-24T11:50:34;1.27;;;0.73;;
19804;SDS011;10062;51.052;13.756;2023-04-24T11:53:06;0.87;;;0.70;;
19804;SDS011;10062;51.052;13.756;2023-04-24T11:55:39;1.23;;;0.70;;
19804;SDS011;10062;51.052;13.756;2023-04-24T11:58:10;1.40;;;0.93;;
19804;SDS011;10062;51.052;13.756;2023-04-24T12:00:43;0.60;;;0.60;;
19804;SDS011;10062;51.052;13.756;2023-04-24T12:03:15;3.47;;;0.80;;
19804;SDS011;10062;51.052;13.756;2023-04-24T12:05:47;1.60;;;0.87;;
19804;SDS011;10062;51.052;13.756;2023-04-24T12:08:26;2.60;;;0.70;;
19804;SDS011;10062;51.052;13.756;2023-04-24T12:11:00;1.87;;;0.70;;
19804;SDS011;10062;51.052;13.756;2023-04-24T12:13:32;3.50;;;1.10;;
19804;SDS011;10062;51.052;13.756;2023-04-24T12:16:04;1.97;;;1.10;;
19804;SDS011;10062;51.052;13.756;2023-04-24T12:18:40;3.17;;;1.10;;
19804;SDS011;10062;51.052;13.756;2023-04-24T12:21:20;3.07;;;0.80;;
19804;SDS011;10062;51.052;13.756;2023-04-24T12:23:54;1.30;;;0.93;;
19804;SDS011;10062;51.052;13.756;2023-04-24T12:26:27;3.90;;;1.20;;
19804;SDS011;10062;51.052;13.756;2023-04-24T12:29:01;4.40;;;1.10;;
19804;SDS011;10062;51.052;13.756;2023-04-24T12:31:34;1.97;;;1.10;;
19804;SDS011;10062;51.052;13.756;2023-04-24T12:34:16;3.00;;;1.10;;
19804;SDS011;10062;51.052;13.756;2023-04-24T12:36:48;2.47;;;0.90;;
19804;SDS011;10062;51.052;13.756;2023-04-24T12:39:20;1.20;;;0.70;;
19804;SDS011;10062;51.052;13.756;2023-04-24T12:41:56;0.83;;;0.80;;
19804;SDS011;10062;51.052;13.756;2023-04-24T12:44:28;2.27;;;0.87;;
19804;SDS011;10062;51.052;13.756;2023-04-24T12:47:01;4.00;;;1.00;;
19804;SDS011;10062;51.052;13.756;2023-04-24T12:49:33;1.70;;;0.87;;
19804;SDS011;10062;51.052;13.756;2023-04-24T12:52:04;2.57;;;0.80;;
19804;SDS011;10062;51.052;13.756;2023-04-24T12:54:36;2.57;;;1.20;;
19804;SDS011;10062;51.052;13.756;2023-04-24T12:57:09;5.03;;;1.10;;
19804;SDS011;10062;51.052;13.756;2023-04-24T12:59:41;1.90;;;0.90;;
19804;SDS011;10062;51.052;13.756;2023-04-24T13:02:13;2.33;;;0.80;;
19804;SDS011;10062;51.052;13.756;2023-04-24T13:04:47;5.40;;;1.00;;
19804;SDS011;10062;51.052;13.756;2023-04-24T13:07:19;3.73;;;1.03;;
19804;SDS011;10062;51.052;13.756;2023-04-24T13:09:51;1.93;;;1.20;;
19804;SDS011;10062;51.052;13.756;2023-04-24T13:12:24;4.87;;;1.20;;
19804;SDS011;10062;51.052;13.756;2023-04-24T13:14:57;1.53;;;1.07;;
19804;SDS011;10062;51.052;13.756;2023-04-24T13:17:29;6.40;;;1.00;;
19804;SDS011;10062;51.052;13.756;2023-04-24T13:20:01;2.07;;;0.77;;
19804;SDS011;10062;51.052;13.756;2023-04-24T13:22:33;3.87;;;1.43;;
19804;SDS011;10062;51.052;13.756;2023-04-24T13:25:05;1.60;;;0.73;;
19804;SDS011;10062;51.052;13.756;2023-04-24T13:27:39;9.10;;;1.70;;
19804;SDS011;10062;51.052;13.756;2023-04-24T13:30:11;4.30;;;1.30;;
19804;SDS011;10062;51.052;13.756;2023-04-24T13:32:43;7.27;;;1.73;;
19804;SDS011;10062;51.052;13.756;2023-04-24T13:35:15;1.33;;;0.90;;
19804;SDS011;10062;51.052;13.756;2023-04-24T13:37:46;8.73;;;1.27;;
19804;SDS011;10062;51.052;13.756;2023-04-24T13:40:18;6.83;;;1.20;;
19804;SDS011;10062;51.052;13.756;2023-04-24T13:42:51;6.27;;;1.13;;
19804;SDS011;10062;51.052;13.756;2023-04-24T13:45:23;4.20;;;0.90;;
19804;SDS011;10062;51.052;13.756;2023-04-24T13:47:54;2.97;;;0.93;;
19804;SDS011;10062;51.052;13.756;2023-04-24T13:50:26;3.03;;;0.90;;
19804;SDS011;10062;51.052;13.756;2023-04-24T13:52:58;3.17;;;1.50;;
19804;SDS011;10062;51.052;13.756;2023-04-24T13:55:31;5.43;;;1.83;;
19804;SDS011;10062;51.052;13.756;2023-04-24T13:58:04;2.47;;;1.07;;
19804;SDS011;10062;51.052;13.756;2023-04-24T14:00:36;2.63;;;0.90;;
19804;SDS011;10062;51.052;13.756;2023-04-24T14:03:08;3.47;;;1.10;;
19804;SDS011;10062;51.052;13.756;2023-04-24T14:05:40;8.30;;;1.40;;
19804;SDS011;10062;51.052;13.756;2023-04-24T14:08:12;2.90;;;1.33;;
19804;SDS011;10062;51.052;13.756;2023-04-24T14:10:44;3.23;;;1.70;;
19804;SDS011;10062;51.052;13.756;2023-04-24T14:13:17;15.17;;;9.53;;
19804;SDS011;10062;51.052;13.756;2023-04-24T14:15:49;2.03;;;1.20;;
19804;SDS011;10062;51.052;13.756;2023-04-24T14:18:20;5.60;;;1.40;;
19804;SDS011;10062;51.052;13.756;2023-04-24T14:20:52;2.93;;;1.20;;
19804;SDS011;10062;51.052;13.756;2023-04-24T14:23:24;4.97;;;1.30;;
19804;SDS011;10062;51.052;13.756;2023-04-24T14:25:56;6.77;;;4.10;;
19804;SDS011;10062;51.052;13.756;2023-04-24T14:28:29;32.07;;;17.93;;
19804;SDS011;10062;51.052;13.756;2023-04-24T14:31:00;4.10;;;1.90;;
19804;SDS011;10062;51.052;13.756;2023-04-24T14:33:32;1.77;;;1.07;;
19804;SDS011;10062;51.052;13.756;2023-04-24T14:36:04;3.87;;;0.97;;
19804;SDS011;10062;51.052;13.756;2023-04-24T14:38:36;3.43;;;1.73;;
19804;SDS011;10062;51.052;13.756;2023-04-24T14:41:08;2.03;;;1.27;;
19804;SDS011;10062;51.052;13.756;2023-04-24T14:43:43;2.63;;;1.20;;
19804;SDS011;10062;51.052;13.756;2023-04-24T14:46:14;3.37;;;1.00;;
19804;SDS011;10062;51.052;13.756;2023-04-24T14:48:46;5.90;;;1.40;;
19804;SDS011;10062;51.052;13.756;2023-04-24T14:51:18;4.07;;;1.20;;
19804;SDS011;10062;51.052;13.756;2023-04-24T14:53:49;2.90;;;1.20;;
19804;SDS011;10062;51.052;13.756;2023-04-24T14:56:21;3.70;;;1.50;;
19804;SDS011;10062;51.052;13.756;2023-04-24T14:58:55;2.73;;;1.40;;
19804;SDS011;10062;51.052;13.756;2023-04-24T15:01:27;2.23;;;1.17;;
19804;SDS011;10062;51.052;13.756;2023-04-24T15:03:59;5.00;;;1.40;;
19804;SDS011;10062;51.052;13.756;2023-04-24T15:06:31;2.13;;;1.13;;
19804;SDS011;10062;51.052;13.756;2023-04-24T15:09:02;6.43;;;1.20;;
19804;SDS011;10062;51.052;13.756;2023-04-24T15:11:34;3.37;;;1.30;;
19804;SDS011;10062;51.052;13.756;2023-04-24T15:14:07;1.80;;;1.00;;
19804;SDS011;10062;51.052;13.756;2023-04-24T15:16:39;3.43;;;1.03;;
19804;SDS011;10062;51.052;13.756;2023-04-24T15:19:10;2.30;;;0.90;;